createdAt,value
2018-11-14T00:00:36.245Z,7.77
2018-11-14T00:03:05.674Z,7.78
2018-11-14T00:05:34.765Z,7.80
2018-11-14T00:08:04.252Z,7.84
2018-11-14T00:10:33.344Z,7.89
2018-11-14T00:13:02.533Z,7.94
2018-11-14T00:15:32.151Z,7.86
2018-11-14T00:18:01.243Z,7.85
2018-11-14T00:20:30.429Z,7.89
2018-11-14T00:22:59.947Z,7.95
2018-11-14T00:25:29.133Z,8.01
2018-11-14T00:27:58.421Z,8.08
2018-11-14T00:30:27.844Z,8.18
2018-11-14T00:32:56.977Z,8.30
2018-11-14T00:35:26.187Z,8.44
2018-11-14T00:37:55.743Z,8.54
2018-11-14T00:40:24.933Z,8.62
2018-11-14T00:42:54.033Z,8.61
2018-11-14T00:45:23.741Z,8.50
2018-11-14T00:47:52.892Z,8.42
2018-11-14T00:50:22.215Z,8.36
2018-11-14T00:52:51.619Z,8.30
2018-11-14T00:55:22.040Z,8.22
2018-11-14T00:57:52.605Z,7.90
2018-11-14T01:00:23.973Z,7.84
2018-11-14T01:02:53.653Z,7.87
2018-11-14T01:05:22.889Z,7.91
2018-11-14T01:07:52.753Z,7.95
2018-11-14T01:10:23.009Z,8.00
2018-11-14T01:12:52.575Z,8.05
2018-11-14T01:15:23.149Z,8.07
2018-11-14T01:17:52.317Z,8.13
2018-11-14T01:20:22.364Z,8.14
2018-11-14T01:22:51.948Z,8.16
2018-11-14T01:25:21.165Z,8.17
2018-11-14T01:27:50.335Z,8.01
2018-11-14T01:30:24.697Z,8.18
2018-11-14T01:32:54.657Z,8.17
2018-11-14T01:35:23.867Z,8.15
2018-11-14T01:37:53.478Z,7.96
2018-11-14T01:40:24.529Z,8.05
2018-11-14T01:42:55.004Z,7.93
2018-11-14T01:45:24.125Z,7.94
2018-11-14T01:47:53.350Z,7.95
2018-11-14T01:50:22.950Z,7.90
2018-11-14T01:52:52.141Z,7.87
2018-11-14T01:55:21.910Z,7.83
2018-11-14T01:57:51.501Z,7.80
2018-11-14T02:00:22.639Z,7.76
2018-11-14T02:02:51.853Z,7.74
2018-11-14T02:05:21.040Z,7.79
2018-11-14T02:07:50.293Z,7.82
2018-11-14T02:10:20.838Z,7.86
2018-11-14T02:12:49.949Z,7.83
2018-11-14T02:15:20.836Z,7.82
2018-11-14T02:17:50.086Z,7.85
2018-11-14T02:20:19.285Z,7.93
2018-11-14T02:22:49.072Z,7.99
2018-11-14T02:25:18.718Z,8.00
2018-11-14T02:27:47.976Z,8.02
2018-11-14T02:30:19.762Z,7.82
2018-11-14T02:32:48.889Z,7.93
2018-11-14T02:35:18.077Z,7.96
2018-11-14T02:37:48.115Z,8.00
2018-11-14T02:40:18.619Z,8.00
2018-11-14T02:42:47.801Z,8.06
2018-11-14T02:45:17.765Z,8.13
2018-11-14T02:47:46.977Z,8.23
2018-11-14T02:50:17.619Z,8.26
2018-11-14T02:52:46.849Z,8.31
2018-11-14T02:55:16.977Z,8.38
2018-11-14T02:57:46.752Z,8.45
2018-11-14T03:00:19.497Z,8.50
2018-11-14T03:02:48.646Z,8.47
2018-11-14T03:05:17.777Z,8.51
2018-11-14T03:07:46.921Z,8.52
2018-11-14T03:10:21.792Z,8.53
2018-11-14T03:12:50.900Z,8.50
2018-11-14T03:15:21.295Z,8.45
2018-11-14T03:17:50.850Z,8.42
2018-11-14T03:20:21.132Z,8.33
2018-11-14T03:22:50.297Z,8.27
2018-11-14T03:25:19.521Z,8.27
2018-11-14T03:27:48.693Z,8.28
2018-11-14T03:30:18.606Z,8.28
2018-11-14T03:32:48.346Z,8.32
2018-11-14T03:35:17.658Z,8.33
2018-11-14T03:37:46.808Z,8.34
2018-11-14T03:40:17.449Z,8.32
2018-11-14T03:42:46.677Z,8.33
2018-11-14T03:45:16.281Z,8.33
2018-11-14T03:47:45.858Z,8.34
2018-11-14T03:50:15.081Z,8.34
2018-11-14T03:52:44.243Z,8.34
2018-11-14T03:55:13.865Z,8.37
2018-11-14T03:57:43.165Z,8.38
2018-11-14T04:00:15.157Z,8.38
2018-11-14T04:02:45.364Z,8.40
2018-11-14T04:05:14.456Z,8.41
2018-11-14T04:07:44.151Z,8.43
2018-11-14T04:10:14.093Z,8.46
2018-11-14T04:12:43.394Z,8.47
2018-11-14T04:15:13.989Z,8.51
2018-11-14T04:17:43.133Z,8.51
2018-11-14T04:20:14.210Z,8.53
2018-11-14T04:22:43.694Z,8.53
2018-11-14T04:25:15.293Z,8.54
2018-11-14T04:27:45.242Z,8.53
2018-11-14T04:30:16.186Z,8.53
2018-11-14T04:32:45.577Z,8.53
2018-11-14T04:35:16.173Z,8.52
2018-11-14T04:37:45.338Z,8.58
2018-11-14T04:40:16.457Z,8.60
2018-11-14T04:42:45.723Z,8.65
2018-11-14T04:45:16.754Z,8.66
2018-11-14T04:47:46.071Z,8.71
2018-11-14T04:50:17.865Z,8.77
2018-11-14T04:52:47.879Z,8.82
2018-11-14T04:55:18.244Z,8.84
2018-11-14T04:57:47.585Z,8.88
2018-11-14T05:00:18.077Z,8.91
2018-11-14T05:02:47.945Z,8.97
2018-11-14T05:05:18.735Z,9.04
2018-11-14T05:07:48.179Z,9.10
2018-11-14T05:10:21.625Z,9.17
2018-11-14T05:12:51.270Z,9.27
2018-11-14T05:15:21.901Z,9.30
2018-11-14T05:17:51.745Z,9.34
2018-11-14T05:20:22.481Z,9.35
2018-11-14T05:22:52.065Z,9.39
2018-11-14T05:25:21.396Z,9.42
2018-11-14T05:27:50.930Z,9.44
2018-11-14T05:30:21.308Z,9.47
2018-11-14T05:32:51.441Z,9.41
2018-11-14T05:35:20.729Z,9.37
2018-11-14T05:37:50.313Z,9.33
2018-11-14T05:40:20.765Z,9.29
2018-11-14T05:42:50.439Z,9.26
2018-11-14T05:45:23.170Z,9.21
2018-11-14T05:47:52.330Z,9.20
2018-11-14T05:50:22.329Z,9.19
2018-11-14T05:52:51.948Z,9.15
2018-11-14T05:55:21.267Z,9.12
2018-11-14T05:57:50.409Z,9.09
2018-11-14T06:00:34.724Z,9.08
2018-11-14T06:03:04.523Z,9.06
2018-11-14T06:05:33.891Z,9.01
2018-11-14T06:08:03.169Z,9.04
2018-11-14T06:10:32.374Z,8.99
2018-11-14T06:13:01.570Z,8.97
2018-11-14T06:15:30.776Z,8.93
2018-11-14T06:18:00.104Z,8.81
2018-11-14T06:20:29.370Z,8.77
2018-11-14T06:22:58.586Z,8.81
2018-11-14T06:25:29.605Z,8.84
2018-11-14T06:27:59.822Z,8.82
2018-11-14T06:30:29.401Z,8.78
2018-11-14T06:32:59.282Z,8.56
2018-11-14T06:35:28.827Z,8.45
2018-11-14T06:37:58.892Z,8.45
2018-11-14T06:40:29.325Z,8.38
2018-11-14T06:42:58.550Z,8.60
2018-11-14T06:45:29.669Z,8.65
2018-11-14T06:48:00.308Z,8.68
2018-11-14T06:50:29.578Z,8.72
2018-11-14T06:53:02.453Z,8.78
2018-11-14T06:55:31.892Z,8.83
2018-11-14T06:58:01.067Z,8.87
2018-11-14T07:00:34.294Z,8.91
2018-11-14T07:03:04.755Z,8.91
2018-11-14T07:05:34.342Z,8.93
2018-11-14T07:08:03.531Z,8.99
2018-11-14T07:10:34.055Z,9.03
2018-11-14T07:13:06.503Z,9.08
2018-11-14T07:15:36.237Z,9.13
2018-11-14T07:18:06.023Z,9.15
2018-11-14T07:20:36.838Z,9.18
2018-11-14T07:23:06.181Z,9.22
2018-11-14T07:25:35.349Z,9.26
2018-11-14T07:28:05.314Z,9.28
2018-11-14T07:30:35.026Z,9.33
2018-11-14T07:33:06.925Z,9.36
2018-11-14T07:35:36.121Z,9.37
2018-11-14T07:38:40.035Z,9.37
2018-11-14T07:41:11.113Z,9.41
2018-11-14T07:43:41.042Z,9.44
2018-11-14T07:46:10.969Z,9.50
2018-11-14T07:48:40.330Z,9.53
2018-11-14T07:51:11.760Z,9.55
2018-11-14T07:53:40.902Z,9.63
2018-11-14T07:56:10.057Z,9.70
2018-11-14T07:58:39.653Z,9.75
2018-11-14T08:01:08.973Z,9.81
2018-11-14T08:03:38.272Z,9.82
2018-11-14T08:06:07.861Z,9.91
2018-11-14T08:08:37.054Z,9.96
2018-11-14T08:11:07.209Z,10.04
2018-11-14T08:13:37.450Z,10.07
2018-11-14T08:16:06.922Z,10.12
2018-11-14T08:18:36.242Z,10.17
2018-11-14T08:21:05.963Z,10.16
2018-11-14T08:23:35.221Z,10.15
2018-11-14T08:26:04.437Z,10.14
2018-11-14T08:28:33.629Z,10.08
2018-11-14T08:31:02.789Z,10.08
2018-11-14T08:33:32.006Z,10.08
2018-11-14T08:36:01.509Z,10.07
2018-11-14T08:38:30.698Z,10.09
2018-11-14T08:40:59.854Z,10.02
2018-11-14T08:43:29.509Z,10.06
2018-11-14T08:45:58.633Z,10.09
2018-11-14T08:48:27.850Z,10.10
2018-11-14T08:50:57.418Z,10.14
2018-11-14T08:53:26.738Z,10.15
2018-11-14T08:55:55.921Z,10.18
2018-11-14T08:58:25.518Z,10.22
2018-11-14T09:00:54.678Z,10.26
2018-11-14T09:03:23.848Z,10.29
2018-11-14T09:05:53.417Z,10.31
2018-11-14T09:08:22.553Z,10.32
2018-11-14T09:10:51.765Z,10.36
2018-11-14T09:13:20.939Z,10.39
2018-11-14T09:15:50.052Z,10.39
2018-11-14T09:18:19.296Z,10.38
2018-11-14T09:20:48.537Z,10.42
2018-11-14T09:23:17.682Z,10.41
2018-11-14T09:25:46.965Z,10.46
2018-11-14T09:28:16.499Z,10.45
2018-11-14T09:30:45.705Z,10.44
2018-11-14T09:33:14.901Z,10.47
2018-11-14T09:35:44.049Z,10.57
2018-11-14T09:38:13.209Z,10.58
2018-11-14T09:40:42.582Z,10.63
2018-11-14T09:43:11.720Z,10.64
2018-11-14T09:45:40.881Z,10.62
2018-11-14T09:48:09.969Z,10.58
2018-11-14T09:50:39.505Z,10.58
2018-11-14T09:53:08.704Z,10.63
2018-11-14T09:55:37.881Z,10.62
2018-11-14T09:58:07.128Z,10.65
2018-11-14T10:00:36.551Z,10.65
2018-11-14T10:03:15.763Z,10.68
2018-11-14T10:05:45.041Z,10.74
2018-11-14T10:08:14.150Z,10.76
2018-11-14T10:10:43.632Z,10.75
2018-11-14T10:13:12.949Z,10.77
2018-11-14T10:15:42.123Z,10.77
2018-11-14T10:18:11.360Z,10.79
2018-11-14T10:20:40.526Z,10.80
2018-11-14T10:23:09.825Z,10.75
2018-11-14T10:25:39.523Z,10.81
2018-11-14T10:28:08.778Z,10.85
2018-11-14T10:30:37.961Z,10.89
2018-11-14T10:33:07.495Z,10.90
2018-11-14T10:35:36.705Z,10.96
2018-11-14T10:38:06.158Z,11.00
2018-11-14T10:40:35.297Z,11.04
2018-11-14T10:43:04.621Z,11.08
2018-11-14T10:45:33.777Z,11.08
2018-11-14T10:48:03.423Z,11.10
2018-11-14T10:50:32.753Z,11.10
2018-11-14T10:53:01.941Z,11.11
2018-11-14T10:55:31.557Z,11.12
2018-11-14T10:58:00.757Z,11.10
2018-11-14T11:00:35.445Z,11.12
2018-11-14T11:03:10.069Z,11.11
2018-11-14T11:05:44.797Z,11.07
2018-11-14T11:08:19.970Z,11.03
2018-11-14T11:11:53.650Z,11.03
2018-11-14T11:14:28.033Z,10.95
2018-11-14T11:17:02.690Z,10.94
2018-11-14T11:19:32.325Z,10.92
2018-11-14T11:22:01.822Z,10.88
2018-11-14T11:24:31.317Z,10.92
2018-11-14T11:27:00.580Z,10.94
2018-11-14T11:29:29.839Z,10.91
2018-11-14T11:31:59.145Z,10.94
2018-11-14T11:34:28.265Z,10.95
2018-11-14T11:36:57.418Z,10.94
2018-11-14T11:39:27.009Z,10.92
2018-11-14T11:41:56.200Z,10.89
2018-11-14T11:44:25.451Z,10.86
2018-11-14T11:46:55.176Z,10.85
2018-11-14T11:49:24.630Z,10.86
2018-11-14T11:51:53.813Z,10.87
2018-11-14T11:54:23.266Z,10.88
2018-11-14T11:56:52.509Z,10.85
2018-11-14T11:59:21.647Z,10.85
2018-11-14T12:01:51.226Z,10.86
2018-11-14T12:04:20.557Z,10.85
2018-11-14T12:06:49.875Z,10.83
2018-11-14T12:09:19.321Z,10.88
2018-11-14T12:11:48.522Z,10.87
2018-11-14T12:14:17.722Z,10.86
2018-11-14T12:16:47.227Z,10.88
2018-11-14T12:19:16.606Z,10.90
2018-11-14T12:21:45.729Z,10.94
2018-11-14T12:24:15.358Z,10.91
2018-11-14T12:26:44.474Z,10.92
2018-11-14T12:29:14.569Z,10.93
2018-11-14T12:31:43.763Z,10.93
2018-11-14T12:34:13.005Z,10.94
2018-11-14T12:36:42.206Z,10.97
2018-11-14T12:39:12.025Z,10.91
2018-11-14T12:41:41.255Z,10.95
2018-11-14T12:44:10.454Z,10.93
2018-11-14T12:46:40.153Z,10.88
2018-11-14T12:49:09.305Z,10.89
2018-11-14T12:51:38.493Z,10.88
2018-11-14T12:54:08.164Z,10.85
2018-11-14T12:56:37.488Z,10.75
2018-11-14T12:59:06.665Z,10.76
2018-11-14T13:01:36.157Z,10.77
2018-11-14T13:04:05.765Z,10.78
2018-11-14T13:06:35.036Z,10.75
2018-11-14T13:09:07.167Z,10.77
2018-11-14T13:11:36.448Z,10.70
2018-11-14T13:14:05.969Z,10.60
2018-11-14T13:16:35.542Z,10.63
2018-11-14T13:19:04.981Z,10.64
2018-11-14T13:21:35.740Z,10.64
2018-11-14T13:24:05.113Z,10.68
2018-11-14T13:26:34.237Z,10.65
2018-11-14T13:29:03.948Z,10.55
2018-11-14T13:31:33.138Z,10.64
2018-11-14T13:34:02.560Z,10.63
2018-11-14T13:36:31.993Z,10.68
2018-11-14T13:39:01.295Z,10.67
2018-11-14T13:41:30.421Z,10.60
2018-11-14T13:44:00.061Z,10.67
2018-11-14T13:46:29.208Z,10.72
2018-11-14T13:48:58.491Z,10.74
2018-11-14T13:51:27.614Z,10.71
2018-11-14T13:53:56.723Z,10.73
2018-11-14T13:56:25.873Z,10.78
2018-11-14T13:58:55.517Z,10.81
2018-11-14T14:01:24.732Z,10.84
2018-11-14T14:03:54.017Z,10.87
2018-11-14T14:06:23.214Z,10.91
2018-11-14T14:08:52.501Z,10.88
2018-11-14T14:11:21.682Z,10.89
2018-11-14T14:13:56.606Z,10.91
2018-11-14T14:16:26.102Z,10.92
2018-11-14T14:18:55.301Z,10.91
2018-11-14T14:21:25.230Z,10.89
2018-11-14T14:23:54.330Z,10.84
2018-11-14T14:26:23.521Z,10.80
2018-11-14T14:28:52.785Z,10.77
2018-11-14T14:31:22.026Z,10.73
2018-11-14T14:33:51.222Z,10.70
2018-11-14T14:36:20.977Z,10.65
2018-11-14T14:38:50.098Z,10.62
2018-11-14T14:41:19.344Z,10.61
2018-11-14T14:43:48.479Z,10.57
2018-11-14T14:46:17.609Z,10.56
2018-11-14T14:48:46.777Z,10.54
2018-11-14T14:51:16.048Z,10.53
2018-11-14T14:53:45.189Z,10.48
2018-11-14T14:56:14.322Z,10.47
2018-11-14T14:58:43.798Z,10.42
2018-11-14T15:01:13.001Z,10.42
2018-11-14T15:03:42.293Z,10.41
2018-11-14T15:06:11.638Z,10.40
2018-11-14T15:08:40.801Z,10.37
2018-11-14T15:11:10.017Z,10.31
2018-11-14T15:13:40.477Z,10.24
2018-11-14T15:16:09.614Z,10.19
2018-11-14T15:18:38.751Z,10.14
2018-11-14T15:21:08.901Z,10.10
2018-11-14T15:23:37.998Z,10.07
2018-11-14T15:26:07.931Z,10.03
2018-11-14T15:28:37.507Z,10.02
2018-11-14T15:31:06.962Z,9.99
2018-11-14T15:33:36.105Z,9.97
2018-11-14T15:36:05.553Z,9.98
2018-11-14T15:38:39.330Z,9.92
2018-11-14T15:41:11.068Z,9.89
2018-11-14T15:43:41.341Z,9.87
2018-11-14T15:46:11.253Z,9.83
2018-11-14T15:48:41.314Z,9.84
2018-11-14T15:51:10.568Z,9.85
2018-11-14T15:53:41.548Z,9.86
2018-11-14T15:56:12.450Z,9.87
2018-11-14T15:58:42.994Z,9.85
2018-11-14T16:01:12.166Z,9.85
2018-11-14T16:03:41.374Z,9.84
2018-11-14T16:06:10.622Z,9.80
2018-11-14T16:08:39.718Z,9.71
2018-11-14T16:11:08.873Z,9.65
2018-11-14T16:13:37.973Z,9.57
2018-11-14T16:16:07.229Z,9.49
2018-11-14T16:18:36.563Z,9.42
2018-11-14T16:21:05.991Z,9.34
2018-11-14T16:23:35.150Z,9.29
2018-11-14T16:26:04.457Z,9.26
2018-11-14T16:28:34.665Z,9.27
2018-11-14T16:31:03.937Z,9.27
2018-11-14T16:33:33.666Z,9.27
2018-11-14T16:36:03.301Z,9.27
2018-11-14T16:38:32.405Z,9.24
2018-11-14T16:41:01.596Z,9.27
2018-11-14T16:43:30.730Z,9.25
2018-11-14T16:46:00.018Z,9.26
2018-11-14T16:48:29.250Z,9.28
2018-11-14T16:50:58.502Z,9.22
2018-11-14T16:53:27.741Z,9.14
2018-11-14T16:55:56.962Z,9.20
2018-11-14T16:58:26.194Z,9.23
2018-11-14T17:00:55.368Z,9.26
2018-11-14T17:03:24.634Z,9.35
2018-11-14T17:05:53.793Z,9.42
2018-11-14T17:08:23.032Z,9.47
2018-11-14T17:10:52.143Z,9.49
2018-11-14T17:13:22.202Z,9.54
2018-11-14T17:15:51.374Z,9.56
2018-11-14T17:18:20.573Z,9.58
2018-11-14T17:20:49.805Z,9.57
2018-11-14T17:23:19.010Z,9.53
2018-11-14T17:25:48.112Z,9.46
2018-11-14T17:28:17.549Z,9.39
2018-11-14T17:30:46.633Z,9.28
2018-11-14T17:33:15.796Z,9.17
2018-11-14T17:35:45.367Z,9.09
2018-11-14T17:38:14.504Z,9.03
2018-11-14T17:40:43.686Z,9.01
2018-11-14T17:43:13.221Z,8.96
2018-11-14T17:45:42.313Z,8.93
2018-11-14T17:48:11.445Z,8.90
2018-11-14T17:50:40.696Z,8.89
2018-11-14T17:53:09.955Z,8.87
2018-11-14T17:55:39.126Z,8.83
2018-11-14T17:58:08.369Z,8.79
2018-11-14T18:00:37.509Z,8.72
2018-11-14T18:03:06.816Z,8.68
2018-11-14T18:05:37.244Z,8.54
2018-11-14T18:08:06.731Z,8.51
2018-11-14T18:10:37.890Z,8.48
2018-11-14T18:13:07.217Z,8.40
2018-11-14T18:15:36.421Z,8.33
2018-11-14T18:18:05.840Z,8.29
2018-11-14T18:20:35.589Z,8.25
2018-11-14T18:23:05.809Z,8.19
2018-11-14T18:25:37.466Z,8.15
2018-11-14T18:28:06.978Z,8.10
2018-11-14T18:30:36.138Z,8.08
2018-11-14T18:33:05.652Z,8.05
2018-11-14T18:35:34.825Z,8.01
2018-11-14T18:38:04.018Z,7.96
2018-11-14T18:40:34.390Z,7.91
2018-11-14T18:43:03.589Z,7.87
2018-11-14T18:45:34.957Z,7.80
2018-11-14T18:48:05.050Z,7.78
2018-11-14T18:50:34.160Z,7.75
2018-11-14T18:53:03.309Z,7.73
2018-11-14T18:55:33.750Z,7.71
2018-11-14T18:58:04.246Z,7.66
2018-11-14T19:00:34.398Z,7.61
2018-11-14T19:03:03.616Z,7.61
2018-11-14T19:05:33.365Z,7.61
2018-11-14T19:08:02.631Z,7.58
2018-11-14T19:10:33.626Z,7.51
2018-11-14T19:13:03.073Z,7.50
2018-11-14T19:15:33.925Z,7.47
2018-11-14T19:18:04.000Z,7.45
2018-11-14T19:20:35.226Z,7.40
2018-11-14T19:23:05.286Z,7.39
2018-11-14T19:25:35.835Z,7.37
2018-11-14T19:28:05.482Z,7.32
2018-11-14T19:30:36.159Z,7.28
2018-11-14T19:33:05.437Z,7.20
2018-11-14T19:35:34.702Z,7.18
2018-11-14T19:38:04.101Z,7.10
2018-11-14T19:40:36.533Z,7.04
2018-11-14T19:43:10.598Z,7.01
2018-11-14T19:45:40.640Z,6.96
2018-11-14T19:48:10.378Z,6.94
2018-11-14T19:50:40.389Z,6.91
2018-11-14T19:53:09.525Z,6.72
2018-11-14T19:55:39.307Z,6.89
2018-11-14T19:58:08.432Z,6.86
2018-11-14T20:00:39.811Z,6.81
2018-11-14T20:03:09.525Z,6.81
2018-11-14T20:05:39.360Z,6.68
2018-11-14T20:08:09.761Z,6.64
2018-11-14T20:10:39.583Z,6.64
2018-11-14T20:13:08.794Z,6.61
2018-11-14T20:15:38.901Z,6.58
2018-11-14T20:18:09.709Z,6.54
2018-11-14T20:20:40.946Z,6.54
2018-11-14T20:23:11.444Z,6.52
2018-11-14T20:25:40.672Z,6.51
2018-11-14T20:28:09.905Z,6.52
2018-11-14T20:30:40.099Z,6.50
2018-11-14T20:33:12.127Z,6.44
2018-11-14T20:35:41.397Z,6.41
2018-11-14T20:38:10.611Z,6.38
2018-11-14T20:40:42.477Z,6.35
2018-11-14T20:43:12.059Z,6.29
2018-11-14T20:45:42.148Z,6.30
2018-11-14T20:48:11.379Z,6.33
2018-11-14T20:50:40.489Z,6.29
2018-11-14T20:53:10.201Z,6.34
2018-11-14T20:55:39.343Z,6.37
2018-11-14T20:58:08.637Z,6.39
2018-11-14T21:00:39.066Z,6.39
2018-11-14T21:03:08.678Z,6.36
2018-11-14T21:05:37.840Z,6.30
2018-11-14T21:08:07.319Z,6.30
2018-11-14T21:10:36.625Z,6.36
2018-11-14T21:13:06.530Z,6.37
2018-11-14T21:15:37.425Z,6.39
2018-11-14T21:18:06.984Z,6.30
2018-11-14T21:20:36.146Z,6.29
2018-11-14T21:23:06.109Z,6.30
2018-11-14T21:25:35.485Z,6.27
2018-11-14T21:28:04.609Z,6.28
2018-11-14T21:30:34.127Z,6.20
2018-11-14T21:33:03.337Z,6.13
2018-11-14T21:35:34.134Z,6.04
2018-11-14T21:38:04.740Z,6.04
2018-11-14T21:40:33.910Z,6.06
2018-11-14T21:43:03.127Z,6.07
2018-11-14T21:45:32.306Z,6.06
2018-11-14T21:48:06.925Z,6.06
2018-11-14T21:50:36.062Z,6.06
2018-11-14T21:53:05.458Z,6.03
2018-11-14T21:55:34.593Z,5.97
2018-11-14T21:58:03.771Z,5.90
2018-11-14T22:00:35.245Z,5.82
2018-11-14T22:03:04.905Z,5.78
2018-11-14T22:05:35.173Z,5.76
2018-11-14T22:08:04.290Z,5.74
2018-11-14T22:10:33.621Z,5.73
2018-11-14T22:13:03.363Z,5.72
2018-11-14T22:15:32.745Z,5.71
2018-11-14T22:18:01.923Z,5.62
2018-11-14T22:20:31.359Z,3.34
2018-11-14T22:23:00.499Z,5.54
2018-11-14T22:25:30.344Z,5.48
2018-11-14T22:27:59.867Z,5.43
2018-11-14T22:30:30.281Z,5.41
2018-11-14T22:32:59.614Z,5.40
2018-11-14T22:35:30.046Z,5.38
2018-11-14T22:37:59.061Z,5.34
2018-11-14T22:40:29.517Z,5.32
2018-11-14T22:42:58.897Z,5.25
2018-11-14T22:45:30.291Z,5.11
2018-11-14T22:47:59.465Z,5.12
2018-11-14T22:50:28.766Z,5.09
2018-11-14T22:52:57.933Z,5.03
2018-11-14T22:55:27.397Z,5.01
2018-11-14T22:57:56.665Z,4.99
2018-11-14T23:00:28.769Z,5.01
2018-11-14T23:02:59.285Z,5.01
2018-11-14T23:05:28.477Z,4.99
2018-11-14T23:07:58.485Z,4.93
2018-11-14T23:10:28.093Z,4.90
2018-11-14T23:12:57.289Z,4.90
2018-11-14T23:15:27.207Z,4.88
2018-11-14T23:17:56.371Z,4.83
2018-11-14T23:20:25.592Z,4.73
2018-11-14T23:22:55.338Z,4.73
2018-11-14T23:25:24.805Z,4.71
2018-11-14T23:27:55.073Z,4.64
2018-11-14T23:30:25.191Z,4.63
2018-11-14T23:32:55.646Z,4.60
2018-11-14T23:35:26.717Z,4.59
2018-11-14T23:38:05.817Z,4.59
2018-11-14T23:40:34.893Z,4.61
2018-11-14T23:43:03.993Z,4.59
2018-11-14T23:45:33.409Z,4.54
2018-11-14T23:48:02.681Z,4.48
2018-11-14T23:50:33.241Z,4.45
2018-11-14T23:53:02.977Z,4.44
2018-11-14T23:55:33.116Z,4.44
2018-11-14T23:58:02.285Z,4.49
